Main page
METAR-TAF:

METAR-TAF

Airports :

Humberside, England

Humberside Airport

latitude: 53-35N, longitude: 000-21W, elevation: 31 m

Current weather observation

The report was made 28 minutes ago, at 08:50 UTC
Wind 15 kt from the South/Southwest
Temperature 12°C
Humidity 94%
Pressure 1018 hPa
Visibility: 7000 m
Scattered clouds at a height of 1000 ft
Scattered clouds at a height of 2000 ft

METAR: EGNJ 290850Z 21015KT 7000 SCT010 SCT020 12/11 Q1018

Time: 10:18 (09:18 UTC)

Forecast

The report was made 1 hour and 20 minutes ago, at 07:58 UTC
Forecast valid from 29 at 09 UTC to 29 at 18 UTC
Wind 10 kt from the South/Southwest
Visibility 10 km or more
Few clouds at a height of 1000 ft
Broken clouds at a height of 2500 ft
Temporary
from 29 at 09 UTC to 29 at 10 UTC
Visibility: 2500 m
Broken clouds at a height of 700 ft
rain, drizzle, mist

TAF: EGNJ 290758Z 2909/2918 21010KT 9999 FEW010 BKN025 TEMPO 2909/2910 2500 RADZ BR BKN007

Weather observations and forecasts of more than 4000 airports (METAR and TAF reports).

The available stations are represented by yellow and red dots on the map.

Hover mouse over dot to see the name of the station.

Then click to see weather observations and forecasts.

To change the map : click on the green buttons with a black cross to zoom in, on the green button with a dash to zoom out, or on the green arrows for adjacent maps.


METAR-TAF: